Hlavní strana
METAR-TAF:

METAR-TAF

Letiště :

Yap, Mikronésie

zeměpisná šířka: 09-29N, zeměpisná délka: 138-05E, výška: 28 m

Aktuální stav počasí

Zpráva byla vytvořena před 29 minutami, v 04:53 UTC
Severovýchodní vítr 11 kt
Teplota 31°C
Vlhkost vzduchu 71%
Tlak 1012 hPa
Viditelnost: 19.3 km
Skoro jasno ve výšce 1600 ft
Oblačno až skoro zataženo ve výšce 13000 ft
Zataženo ve výšce 30000 ft

METAR: PTYA 200453Z 05011KT 12SM FEW016 BKN130 OVC300 31/25 A2987 RMK SLP117 T03100247

Čas: 15:22 (05:22 UTC)

Předpověď počasí

Zpráva byla vytvořena před 5 hodinami a 52 minutami, v 23:30 UTC
Předpověď platná od 20 v 00 UTC do 20 v 24 UTC
vítr z různých směrů 4 kt
Viditelnost: 10 km
Skoro jasno ve výšce 1600 ft
Polojasno ve výšce 14000 ft
Od 20 v 0400 UTC
vítr z různých směrů 5 kt
Viditelnost: 10 km
Polojasno ve výšce 1600 ft
Oblačno až skoro zataženo ve výšce 14000 ft
přeháňky v blízkosti

TAF: PTYA 192330Z 2000/2024 VRB04KT P6SM FEW016 SCT140 FM200400 VRB05KT P6SM VCSH SCT016 BKN140

Stav a předpovědi počasí z více než 4 000 letišť (zprávy METAR a TAF).

Červené a žluté tečky na mapě představují dostupné meteorologické stanice.

Když kurzor umístíte na tečku, zobrazí se název stanice.

Pak kliknutím zobrazíte stav a předpověď počasí.

Chcete-li změnit mapu, kliknutím na zelené tlačítko se znaménkem +mapu přiblížíte, kliknutím na zelené tlačítko se znaménkem – mapu oddálíte a kliknutím na zelené šipky přejdete na sousední mapy.


METAR-TAF: